createdAt,value
2023-03-31T00:01:52.658Z,5.23
2023-03-31T00:04:24.128Z,6.20
2023-03-31T00:06:54.034Z,6.85
2023-03-31T00:09:24.265Z,5.90
2023-03-31T00:11:51.442Z,8.20
2023-03-31T00:14:20.730Z,6.90
2023-03-31T00:16:47.249Z,6.18
2023-03-31T00:19:21.136Z,5.97
2023-03-31T00:21:48.665Z,5.05
2023-03-31T00:24:16.200Z,7.15
2023-03-31T00:26:43.628Z,6.63
2023-03-31T00:29:12.670Z,6.68
2023-03-31T00:31:39.227Z,8.60
2023-03-31T00:34:06.172Z,7.47
2023-03-31T00:36:36.448Z,6.45
2023-03-31T00:39:08.205Z,4.27
2023-03-31T00:41:36.688Z,8.90
2023-03-31T00:44:27.803Z,6.45
2023-03-31T00:47:09.759Z,5.10
2023-03-31T00:49:46.325Z,6.47
2023-03-31T00:52:21.410Z,6.10
2023-03-31T00:54:51.426Z,5.95
2023-03-31T00:57:18.009Z,5.28
2023-03-31T00:59:50.813Z,5.70
2023-03-31T01:02:20.535Z,4.13
2023-03-31T01:04:54.753Z,6.67
2023-03-31T01:07:30.912Z,7.82
2023-03-31T01:10:00.158Z,8.38
2023-03-31T01:12:27.366Z,8.15
2023-03-31T01:14:55.291Z,8.45
2023-03-31T01:17:22.670Z,8.50
2023-03-31T01:20:14.574Z,8.30
2023-03-31T01:23:14.915Z,3.97
2023-03-31T01:26:15.658Z,6.10
2023-03-31T01:28:59.799Z,3.97
2023-03-31T01:31:57.048Z,7.37
2023-03-31T01:35:03.957Z,8.50
2023-03-31T01:38:04.919Z,6.68
2023-03-31T01:40:59.572Z,8.18
2023-03-31T01:44:06.431Z,7.22
2023-03-31T01:46:39.007Z,5.80
2023-03-31T01:49:39.347Z,4.13
2023-03-31T01:52:19.663Z,5.50
2023-03-31T01:54:53.348Z,6.20
2023-03-31T01:57:36.943Z,8.48
2023-03-31T02:00:15.581Z,9.87
2023-03-31T02:03:05.332Z,6.97
2023-03-31T02:05:38.097Z,6.30
2023-03-31T02:08:10.971Z,8.90
2023-03-31T02:10:41.235Z,6.75
2023-03-31T02:13:11.262Z,8.47
2023-03-31T02:15:42.344Z,5.45
2023-03-31T02:18:13.652Z,5.45
2023-03-31T02:20:42.887Z,8.20
2023-03-31T02:23:12.392Z,5.15
2023-03-31T02:25:47.043Z,4.97
2023-03-31T02:28:22.235Z,7.05
2023-03-31T02:31:14.278Z,6.35
2023-03-31T02:33:40.720Z,5.07
2023-03-31T02:36:07.719Z,6.03
2023-03-31T02:38:40.627Z,8.07
2023-03-31T02:41:08.269Z,8.50
2023-03-31T02:43:34.673Z,7.07
2023-03-31T02:46:01.249Z,4.65
2023-03-31T02:48:31.115Z,6.85
2023-03-31T02:51:01.717Z,4.83
2023-03-31T02:53:39.542Z,9.55
2023-03-31T02:56:28.022Z,7.07
2023-03-31T02:59:06.851Z,7.38
2023-03-31T03:01:43.639Z,4.85
2023-03-31T03:04:35.193Z,5.73
2023-03-31T03:07:14.328Z,6.13
2023-03-31T03:09:59.576Z,7.22
2023-03-31T03:12:34.398Z,5.97
2023-03-31T03:15:25.714Z,8.55
2023-03-31T03:17:53.583Z,5.33
2023-03-31T03:20:21.671Z,7.90
2023-03-31T03:22:48.085Z,6.38
2023-03-31T03:25:17.213Z,4.13
2023-03-31T03:27:44.092Z,6.15
2023-03-31T03:30:12.437Z,7.13
2023-03-31T03:32:39.216Z,6.53
2023-03-31T03:35:07.086Z,5.78
2023-03-31T03:37:33.902Z,7.72
2023-03-31T03:40:00.442Z,6.53
2023-03-31T03:42:26.808Z,6.77
2023-03-31T03:44:53.266Z,7.20
2023-03-31T03:47:19.622Z,6.13
2023-03-31T03:49:46.037Z,7.63
2023-03-31T03:52:12.454Z,10.80
2023-03-31T03:54:38.842Z,4.80
2023-03-31T03:57:05.242Z,9.35
2023-03-31T03:59:31.637Z,11.07
2023-03-31T04:01:58.030Z,8.05
2023-03-31T04:04:24.422Z,8.57
2023-03-31T04:06:50.843Z,5.63
2023-03-31T04:09:17.326Z,8.70
2023-03-31T04:11:43.687Z,9.57
2023-03-31T04:14:10.180Z,8.85
2023-03-31T04:16:36.593Z,8.45
2023-03-31T04:19:04.862Z,10.40
2023-03-31T04:21:34.815Z,9.65
2023-03-31T04:24:04.426Z,9.35
2023-03-31T04:26:42.729Z,6.25
2023-03-31T04:29:14.098Z,6.55
2023-03-31T04:31:44.052Z,6.10
2023-03-31T04:34:13.490Z,9.43
2023-03-31T04:36:49.261Z,7.65
2023-03-31T04:39:30.611Z,8.10
2023-03-31T04:41:58.365Z,6.82
2023-03-31T04:44:25.270Z,5.43
2023-03-31T04:46:51.655Z,6.68
2023-03-31T04:49:18.034Z,8.32
2023-03-31T04:51:44.913Z,7.07
2023-03-31T04:54:11.349Z,8.05
2023-03-31T04:56:37.767Z,5.90
2023-03-31T04:59:04.174Z,5.10
2023-03-31T05:01:36.313Z,5.60
2023-03-31T05:04:04.639Z,7.03
2023-03-31T05:06:31.140Z,4.10
2023-03-31T05:08:57.538Z,4.83
2023-03-31T05:11:23.970Z,7.45
2023-03-31T05:13:50.643Z,8.52
2023-03-31T05:16:17.348Z,5.47
2023-03-31T05:18:44.698Z,8.57
2023-03-31T05:21:17.394Z,8.70
2023-03-31T05:23:44.733Z,5.30
2023-03-31T05:26:11.923Z,6.32
2023-03-31T05:28:38.429Z,7.00
2023-03-31T05:31:06.485Z,4.82
2023-03-31T05:33:33.271Z,7.60
2023-03-31T05:36:02.657Z,6.45
2023-03-31T05:38:31.232Z,12.55
2023-03-31T05:40:57.620Z,10.35
2023-03-31T05:43:24.122Z,7.53
2023-03-31T05:45:50.660Z,5.63
2023-03-31T05:48:17.083Z,5.95
2023-03-31T05:50:44.059Z,4.90
2023-03-31T05:53:10.508Z,4.25
2023-03-31T05:55:37.716Z,3.97
2023-03-31T05:58:04.166Z,5.93
2023-03-31T06:00:31.525Z,7.43
2023-03-31T06:02:59.183Z,7.25
2023-03-31T06:05:30.993Z,9.45
2023-03-31T06:07:57.455Z,5.80
2023-03-31T06:10:23.795Z,6.77
2023-03-31T06:12:50.164Z,7.35
2023-03-31T06:15:17.091Z,7.07
2023-03-31T06:17:43.542Z,8.23
2023-03-31T06:20:20.114Z,7.50
2023-03-31T06:22:50.952Z,6.57
2023-03-31T06:25:17.415Z,8.93
2023-03-31T06:27:43.766Z,5.32
2023-03-31T06:30:10.482Z,5.50
2023-03-31T06:32:36.984Z,7.30
2023-03-31T06:35:03.460Z,7.47
2023-03-31T06:37:29.885Z,6.97
2023-03-31T06:39:56.280Z,5.80
2023-03-31T06:42:22.669Z,5.65
2023-03-31T06:44:49.052Z,4.47
2023-03-31T06:47:15.586Z,4.77
2023-03-31T06:49:42.003Z,4.18
2023-03-31T06:52:08.419Z,5.63
2023-03-31T06:54:34.782Z,3.25
2023-03-31T06:57:01.167Z,3.45
2023-03-31T06:59:27.541Z,3.47
2023-03-31T07:01:54.015Z,8.40
2023-03-31T07:04:20.678Z,5.00
2023-03-31T07:06:47.024Z,4.40
2023-03-31T07:09:13.374Z,3.47
2023-03-31T07:11:39.801Z,3.93
2023-03-31T07:14:06.164Z,4.75
2023-03-31T07:16:32.747Z,4.05
2023-03-31T07:18:59.559Z,3.55
2023-03-31T07:21:26.414Z,6.22
2023-03-31T07:23:52.768Z,7.90
2023-03-31T07:26:19.163Z,7.35
2023-03-31T07:28:45.604Z,6.15
2023-03-31T07:31:13.509Z,3.58
2023-03-31T07:33:40.415Z,4.18
2023-03-31T07:36:12.558Z,7.80
2023-03-31T07:38:42.923Z,6.53
2023-03-31T07:41:13.881Z,5.65
2023-03-31T07:43:40.937Z,3.95
2023-03-31T07:46:08.470Z,3.15
2023-03-31T07:48:35.269Z,4.30
2023-03-31T07:51:01.702Z,1.65
2023-03-31T07:53:28.124Z,1.35
2023-03-31T07:55:54.466Z,2.20
2023-03-31T07:58:20.865Z,1.15
2023-03-31T08:00:47.231Z,1.80
2023-03-31T08:03:14.720Z,1.35
2023-03-31T08:05:41.149Z,1.25
2023-03-31T08:08:07.510Z,1.08
2023-03-31T08:10:33.975Z,0.70
2023-03-31T08:13:00.354Z,1.00
2023-03-31T08:15:26.705Z,2.08
2023-03-31T08:17:53.107Z,2.22
2023-03-31T08:20:19.541Z,2.13
2023-03-31T08:22:46.080Z,2.85
2023-03-31T08:25:12.430Z,2.93
2023-03-31T08:27:40.585Z,3.30
2023-03-31T08:30:09.155Z,3.67
2023-03-31T08:32:35.904Z,2.05
2023-03-31T08:35:02.484Z,4.05
2023-03-31T08:37:28.954Z,6.80
2023-03-31T08:39:55.876Z,4.45
2023-03-31T08:42:34.461Z,4.05
2023-03-31T08:45:19.707Z,3.20
2023-03-31T08:47:48.991Z,3.92
2023-03-31T08:50:18.885Z,2.83
2023-03-31T08:52:54.958Z,3.28
2023-03-31T08:55:29.204Z,5.43
2023-03-31T08:58:05.696Z,5.05
2023-03-31T09:00:49.334Z,5.25
2023-03-31T09:03:43.012Z,5.23
2023-03-31T09:06:18.162Z,4.43
2023-03-31T09:08:44.848Z,4.45
2023-03-31T09:11:27.995Z,5.15
2023-03-31T09:14:00.472Z,5.53
2023-03-31T09:16:35.431Z,4.57
2023-03-31T09:19:02.795Z,7.35
2023-03-31T09:21:33.961Z,6.80
2023-03-31T09:24:28.664Z,6.78
2023-03-31T09:27:00.692Z,7.93
2023-03-31T09:29:52.083Z,5.70
2023-03-31T09:32:24.897Z,4.07
2023-03-31T09:34:57.124Z,5.78
2023-03-31T09:37:27.169Z,6.28
2023-03-31T09:39:53.712Z,6.03
2023-03-31T09:42:20.310Z,8.33
2023-03-31T09:44:49.913Z,6.93
2023-03-31T09:47:42.649Z,7.10
2023-03-31T09:50:11.332Z,7.90
2023-03-31T09:52:43.863Z,5.05
2023-03-31T09:55:38.763Z,5.93
2023-03-31T09:58:07.615Z,4.72
2023-03-31T10:00:34.913Z,4.25
2023-03-31T10:03:07.315Z,3.72
2023-03-31T10:05:43.209Z,3.47
2023-03-31T10:08:20.120Z,1.47
2023-03-31T10:11:06.949Z,1.83
2023-03-31T10:13:45.847Z,2.05
2023-03-31T10:16:20.973Z,3.03
2023-03-31T10:18:47.397Z,0.98
2023-03-31T10:21:28.061Z,2.10
2023-03-31T10:23:55.200Z,2.53
2023-03-31T10:26:28.171Z,1.45
2023-03-31T10:28:55.507Z,2.67
2023-03-31T10:31:26.974Z,4.35
2023-03-31T10:33:54.579Z,3.33
2023-03-31T10:36:28.979Z,4.07
2023-03-31T10:38:56.580Z,4.38
2023-03-31T10:41:26.294Z,2.08
2023-03-31T10:43:55.335Z,2.58
2023-03-31T10:46:39.380Z,4.63
2023-03-31T10:49:21.096Z,4.88
2023-03-31T10:51:58.970Z,3.10
2023-03-31T10:54:26.581Z,5.82
2023-03-31T10:56:56.588Z,5.43
2023-03-31T10:59:59.616Z,5.63
2023-03-31T11:03:02.566Z,7.32
2023-03-31T11:05:44.268Z,7.97
2023-03-31T11:08:30.400Z,6.50
2023-03-31T11:11:17.011Z,5.50
2023-03-31T11:14:40.715Z,8.80
2023-03-31T11:17:18.851Z,6.22
2023-03-31T11:20:05.552Z,4.45
2023-03-31T11:22:37.568Z,8.05
2023-03-31T11:25:21.968Z,6.43
2023-03-31T11:28:05.702Z,8.10
2023-03-31T11:30:39.877Z,5.22
2023-03-31T11:33:40.259Z,7.15
2023-03-31T11:36:26.084Z,6.70
2023-03-31T11:39:15.977Z,5.07
2023-03-31T11:42:03.718Z,3.60
2023-03-31T11:44:40.334Z,4.10
2023-03-31T11:47:13.694Z,5.05
2023-03-31T11:49:47.009Z,3.70
2023-03-31T11:52:19.093Z,3.55
2023-03-31T11:55:04.873Z,4.50
2023-03-31T11:57:45.638Z,4.28
2023-03-31T12:00:23.144Z,5.85
2023-03-31T12:03:28.665Z,5.22
2023-03-31T12:06:04.424Z,6.07
2023-03-31T12:08:38.932Z,5.20
2023-03-31T12:11:11.219Z,7.43
2023-03-31T12:13:51.278Z,4.57
2023-03-31T12:16:25.885Z,7.22
2023-03-31T12:19:03.119Z,7.70
2023-03-31T12:21:32.086Z,5.73
2023-03-31T12:23:58.511Z,5.10
2023-03-31T12:26:49.342Z,5.25
2023-03-31T12:29:42.322Z,6.43
2023-03-31T12:32:17.283Z,6.13
2023-03-31T12:34:58.836Z,8.37
2023-03-31T12:37:47.275Z,5.43
2023-03-31T12:40:25.859Z,4.28
2023-03-31T12:43:21.656Z,6.35
2023-03-31T12:45:57.066Z,5.22
2023-03-31T12:48:49.419Z,5.70
2023-03-31T12:51:24.192Z,5.07
2023-03-31T12:54:20.527Z,5.93
2023-03-31T12:57:03.353Z,5.18
2023-03-31T12:59:37.041Z,5.30
2023-03-31T13:02:09.606Z,5.33
2023-03-31T13:04:38.016Z,5.60
2023-03-31T13:07:17.368Z,7.68
2023-03-31T13:10:19.090Z,3.53
2023-03-31T13:13:13.195Z,7.22
2023-03-31T13:15:39.904Z,4.70
2023-03-31T13:18:07.819Z,4.03
2023-03-31T13:20:42.007Z,5.68
2023-03-31T13:23:22.665Z,3.10
2023-03-31T13:25:53.633Z,6.35
2023-03-31T13:28:22.727Z,7.47
2023-03-31T13:30:53.482Z,5.70
2023-03-31T13:33:57.171Z,3.83
2023-03-31T13:36:41.716Z,6.32
2023-03-31T13:39:26.327Z,4.75
2023-03-31T13:42:22.806Z,5.40
2023-03-31T13:44:52.487Z,3.90
2023-03-31T13:48:00.525Z,4.80
2023-03-31T13:50:45.342Z,3.10
2023-03-31T13:53:39.440Z,5.57
2023-03-31T13:56:51.742Z,2.83
2023-03-31T13:59:37.630Z,3.05
2023-03-31T14:02:28.890Z,4.13
2023-03-31T14:05:08.952Z,4.95
2023-03-31T14:07:49.660Z,5.82
2023-03-31T14:10:37.796Z,2.77
2023-03-31T14:13:06.298Z,5.40
2023-03-31T14:15:33.977Z,4.13
2023-03-31T14:18:00.409Z,3.65
2023-03-31T14:20:41.634Z,6.90
2023-03-31T14:23:07.981Z,3.63
2023-03-31T14:25:58.891Z,4.65
2023-03-31T14:28:41.593Z,2.85
2023-03-31T14:31:26.568Z,5.55
2023-03-31T14:34:17.118Z,5.68
2023-03-31T14:36:52.686Z,4.73
2023-03-31T14:39:22.949Z,2.72
2023-03-31T14:41:54.119Z,2.25
2023-03-31T14:44:20.524Z,3.55
2023-03-31T14:46:47.257Z,3.10
2023-03-31T14:49:28.725Z,2.53
2023-03-31T14:52:01.310Z,3.33
2023-03-31T14:54:27.712Z,2.15
2023-03-31T14:56:58.279Z,3.17
2023-03-31T14:59:35.765Z,3.28
2023-03-31T15:02:05.130Z,4.80
2023-03-31T15:04:44.631Z,5.05
2023-03-31T15:07:12.434Z,3.80
2023-03-31T15:09:38.929Z,3.58
2023-03-31T15:12:13.605Z,4.05
2023-03-31T15:14:48.887Z,4.37
2023-03-31T15:17:42.574Z,4.32
2023-03-31T15:20:24.842Z,2.47
2023-03-31T15:22:51.483Z,2.13
2023-03-31T15:25:18.813Z,3.40
2023-03-31T15:27:49.526Z,4.93
2023-03-31T15:30:23.470Z,4.32
2023-03-31T15:32:50.171Z,4.70
2023-03-31T15:35:22.428Z,4.40
2023-03-31T15:37:52.188Z,4.50
2023-03-31T15:40:31.277Z,4.40
2023-03-31T15:45:52.183Z,4.53
2023-03-31T15:48:28.796Z,4.88
2023-03-31T15:51:07.121Z,6.30
2023-03-31T15:53:43.551Z,5.73
2023-03-31T15:56:25.407Z,5.32
2023-03-31T15:59:04.281Z,2.83
2023-03-31T16:01:34.297Z,6.65
2023-03-31T16:04:06.352Z,5.80
2023-03-31T16:06:50.167Z,5.47
2023-03-31T16:09:19.832Z,5.82
2023-03-31T16:11:54.818Z,5.10
2023-03-31T16:14:26.474Z,6.60
2023-03-31T16:16:59.210Z,5.55
2023-03-31T16:19:31.040Z,3.33
2023-03-31T16:22:01.941Z,5.00
2023-03-31T16:24:32.056Z,4.70
2023-03-31T16:27:06.102Z,4.43
2023-03-31T16:29:34.456Z,4.18
2023-03-31T16:32:18.905Z,5.63
2023-03-31T16:34:58.425Z,4.55
2023-03-31T16:37:25.749Z,3.72
2023-03-31T16:39:52.499Z,4.40
2023-03-31T16:42:19.978Z,5.68
2023-03-31T16:44:52.855Z,6.10
2023-03-31T16:47:35.071Z,3.50
2023-03-31T16:50:07.006Z,4.05
2023-03-31T16:52:33.434Z,5.70
2023-03-31T16:54:59.823Z,5.22
2023-03-31T16:57:26.246Z,2.30
2023-03-31T16:59:52.630Z,4.85
2023-03-31T17:02:18.981Z,2.92
2023-03-31T17:04:45.366Z,3.72
2023-03-31T17:07:11.802Z,1.75
2023-03-31T17:09:38.165Z,4.77
2023-03-31T17:12:04.780Z,3.45
2023-03-31T17:14:31.328Z,2.92
2023-03-31T17:16:57.736Z,5.10
2023-03-31T17:19:27.041Z,3.92
2023-03-31T17:21:53.461Z,4.17
2023-03-31T17:24:19.823Z,5.45
2023-03-31T17:26:46.358Z,4.40
2023-03-31T17:29:14.682Z,2.22
2023-03-31T17:31:41.968Z,3.70
2023-03-31T17:34:08.626Z,4.93
2023-03-31T17:36:35.032Z,2.47
2023-03-31T17:39:02.536Z,3.17
2023-03-31T17:41:29.836Z,3.38
2023-03-31T17:43:56.417Z,4.75
2023-03-31T17:46:23.051Z,4.00
2023-03-31T17:48:49.708Z,5.43
2023-03-31T17:51:18.250Z,3.67
2023-03-31T17:53:46.884Z,3.90
2023-03-31T17:56:14.375Z,3.85
2023-03-31T17:58:41.361Z,2.87
2023-03-31T18:01:09.265Z,5.07
2023-03-31T18:03:36.558Z,5.47
2023-03-31T18:06:08.169Z,7.82
2023-03-31T18:08:36.024Z,4.85
2023-03-31T18:11:04.948Z,4.53
2023-03-31T18:13:32.466Z,6.55
2023-03-31T18:15:58.922Z,6.10
2023-03-31T18:18:28.123Z,5.90
2023-03-31T18:20:55.790Z,7.15
2023-03-31T18:23:22.866Z,4.70
2023-03-31T18:25:49.294Z,3.17
2023-03-31T18:28:17.409Z,3.30
2023-03-31T18:30:43.959Z,3.95
2023-03-31T18:33:11.051Z,3.92
2023-03-31T18:35:37.920Z,3.80
2023-03-31T18:38:04.562Z,2.33
2023-03-31T18:40:30.967Z,4.93
2023-03-31T18:42:57.379Z,4.53
2023-03-31T18:45:24.032Z,5.72
2023-03-31T18:47:50.779Z,3.70
2023-03-31T18:50:17.384Z,10.50
2023-03-31T18:52:43.740Z,5.85
2023-03-31T18:55:10.187Z,21.63
2023-03-31T18:57:36.573Z,23.05
2023-03-31T19:00:03.654Z,10.30
2023-03-31T19:02:30.454Z,8.70
2023-03-31T19:04:56.965Z,12.85
2023-03-31T19:07:23.322Z,8.48
2023-03-31T19:09:49.722Z,10.38
2023-03-31T19:12:16.517Z,8.27
2023-03-31T19:14:43.941Z,5.40
2023-03-31T19:17:11.599Z,5.88
2023-03-31T19:19:38.008Z,4.85
2023-03-31T19:22:05.023Z,4.03
2023-03-31T19:24:31.601Z,4.27
2023-03-31T19:26:58.414Z,3.60
2023-03-31T19:29:24.911Z,7.38
2023-03-31T19:31:51.836Z,5.68
2023-03-31T19:34:18.242Z,3.90
2023-03-31T19:36:44.598Z,4.50
2023-03-31T19:39:11.561Z,7.05
2023-03-31T19:41:37.976Z,6.88
2023-03-31T19:44:04.419Z,5.00
2023-03-31T19:46:31.333Z,7.35
2023-03-31T19:48:57.787Z,5.67
2023-03-31T19:51:24.276Z,5.35
2023-03-31T19:53:50.688Z,5.07
2023-03-31T19:56:18.030Z,4.80
2023-03-31T19:58:44.868Z,4.38
2023-03-31T20:01:19.241Z,3.07
2023-03-31T20:03:46.094Z,4.93
2023-03-31T20:06:14.597Z,4.05
2023-03-31T20:08:42.522Z,3.35
2023-03-31T20:11:11.977Z,2.88
2023-03-31T20:13:39.433Z,3.40
2023-03-31T20:16:09.180Z,2.78
2023-03-31T20:18:37.137Z,3.35
2023-03-31T20:21:07.965Z,3.47
2023-03-31T20:23:34.750Z,3.17
2023-03-31T20:26:01.248Z,4.00
2023-03-31T20:28:28.814Z,4.20
2023-03-31T20:30:56.259Z,2.85
2023-03-31T20:33:23.855Z,5.25
2023-03-31T20:36:04.704Z,3.22
2023-03-31T20:38:31.141Z,5.47
2023-03-31T20:40:57.834Z,4.95
2023-03-31T20:43:24.913Z,3.13
2023-03-31T20:46:05.242Z,2.95
2023-03-31T20:48:37.570Z,1.75
2023-03-31T20:51:09.094Z,3.87
2023-03-31T20:53:45.377Z,2.60
2023-03-31T20:56:14.700Z,3.45
2023-03-31T20:58:43.954Z,5.13
2023-03-31T21:01:12.185Z,4.75
2023-03-31T21:03:38.851Z,4.10
2023-03-31T21:06:11.262Z,3.47
2023-03-31T21:08:39.492Z,2.75
2023-03-31T21:11:06.423Z,4.07
2023-03-31T21:13:33.294Z,3.95
2023-03-31T21:16:00.693Z,3.07
2023-03-31T21:18:29.285Z,4.00
2023-03-31T21:21:03.208Z,4.95
2023-03-31T21:23:30.031Z,5.22
2023-03-31T21:25:59.358Z,4.75
2023-03-31T21:28:28.283Z,3.23
2023-03-31T21:31:06.702Z,4.68
2023-03-31T21:33:33.911Z,2.65
2023-03-31T21:36:00.376Z,2.67
2023-03-31T21:38:28.501Z,2.70
2023-03-31T21:40:58.074Z,5.13
2023-03-31T21:43:25.838Z,5.63
2023-03-31T21:45:53.389Z,3.50
2023-03-31T21:48:25.063Z,8.02
2023-03-31T21:50:54.425Z,2.40
2023-03-31T21:53:24.588Z,3.87
2023-03-31T21:55:52.656Z,2.88
2023-03-31T21:58:19.393Z,4.30
2023-03-31T22:00:46.511Z,3.38
2023-03-31T22:05:43.274Z,2.87
2023-03-31T22:08:09.767Z,5.57
2023-03-31T22:10:36.731Z,3.78
2023-03-31T22:13:03.282Z,4.40
2023-03-31T22:15:29.734Z,5.53
2023-03-31T22:17:56.587Z,5.03
2023-03-31T22:20:23.246Z,3.40
2023-03-31T22:22:49.956Z,5.78
2023-03-31T22:25:16.372Z,4.53
2023-03-31T22:27:42.744Z,5.43
2023-03-31T22:30:09.693Z,6.07
2023-03-31T22:32:36.093Z,2.35
2023-03-31T22:35:02.459Z,3.33
2023-03-31T22:37:28.814Z,3.35
2023-03-31T22:39:55.184Z,4.88
2023-03-31T22:42:21.602Z,2.73
2023-03-31T22:44:47.996Z,5.07
2023-03-31T22:47:14.350Z,4.70
2023-03-31T22:49:40.744Z,3.55
2023-03-31T22:52:07.141Z,5.32
2023-03-31T22:54:33.531Z,5.30
2023-03-31T22:56:59.888Z,4.15
2023-03-31T22:59:26.329Z,4.95
2023-03-31T23:01:53.143Z,4.95
2023-03-31T23:04:21.172Z,4.70
2023-03-31T23:06:47.610Z,2.90
2023-03-31T23:09:14.008Z,4.47
2023-03-31T23:11:40.719Z,3.22
2023-03-31T23:14:07.525Z,3.20
2023-03-31T23:16:34.124Z,3.30
2023-03-31T23:19:01.203Z,3.73
2023-03-31T23:21:28.507Z,5.10
2023-03-31T23:23:57.396Z,3.75
2023-03-31T23:26:25.445Z,4.13
2023-03-31T23:28:54.036Z,2.45
2023-03-31T23:31:23.549Z,5.60
2023-03-31T23:33:50.315Z,3.97
2023-03-31T23:36:18.277Z,4.18
2023-03-31T23:38:45.448Z,3.20
2023-03-31T23:41:12.309Z,2.35
2023-03-31T23:43:39.266Z,3.03
2023-03-31T23:46:07.104Z,4.40
2023-03-31T23:48:35.215Z,4.38
2023-03-31T23:51:02.133Z,5.00
2023-03-31T23:53:29.316Z,3.03
2023-03-31T23:55:58.267Z,5.57
2023-03-31T23:58:26.133Z,4.70
